sensor_id;sensor_type;location;lat;lon;timestamp;pressure;altitude;pressure_sealevel;temperature;humidity
7105;BME280;3594;42.152;24.714;2023-03-03T00:01:04;-23970.78;;;5.52;nan
7105;BME280;3594;42.152;24.714;2023-03-03T00:03:30;-23971.63;;;5.55;nan
7105;BME280;3594;42.152;24.714;2023-03-03T00:05:56;-23977.59;;;5.76;nan
7105;BME280;3594;42.152;24.714;2023-03-03T00:08:22;-23972.75;;;5.59;nan
7105;BME280;3594;42.152;24.714;2023-03-03T00:10:47;-23974.59;;;5.65;nan
7105;BME280;3594;42.152;24.714;2023-03-03T00:13:19;-23972.75;;;5.59;nan
7105;BME280;3594;42.152;24.714;2023-03-03T00:15:45;-23979.59;;;5.83;nan
7105;BME280;3594;42.152;24.714;2023-03-03T00:18:34;-23983.00;;;5.95;nan
7105;BME280;3594;42.152;24.714;2023-03-03T00:21:01;-23980.16;;;5.85;nan
7105;BME280;3594;42.152;24.714;2023-03-03T00:26:00;-23976.59;;;5.72;nan
7105;BME280;3594;42.152;24.714;2023-03-03T00:28:29;-23980.28;;;5.86;nan
7105;BME280;3594;42.152;24.714;2023-03-03T00:30:58;-23982.72;;;5.94;nan
7105;BME280;3594;42.152;24.714;2023-03-03T00:33:45;-23972.34;;;5.57;nan
7105;BME280;3594;42.152;24.714;2023-03-03T00:38:39;-23976.31;;;5.71;nan
7105;BME280;3594;42.152;24.714;2023-03-03T00:41:21;-23983.84;;;5.98;nan
7105;BME280;3594;42.152;24.714;2023-03-03T00:43:47;-23973.47;;;5.61;nan
7105;BME280;3594;42.152;24.714;2023-03-03T00:46:16;-23978.03;;;5.77;nan
7105;BME280;3594;42.152;24.714;2023-03-03T00:48:43;-23975.03;;;5.67;nan
7105;BME280;3594;42.152;24.714;2023-03-03T00:53:47;-23982.00;;;5.92;nan
7105;BME280;3594;42.152;24.714;2023-03-03T00:56:12;-23977.59;;;5.76;nan
7105;BME280;3594;42.152;24.714;2023-03-03T00:58:38;-23978.72;;;5.80;nan
7105;BME280;3594;42.152;24.714;2023-03-03T01:01:04;-23923.94;;;3.85;nan
7105;BME280;3594;42.152;24.714;2023-03-03T01:03:29;-23978.03;;;5.77;nan
7105;BME280;3594;42.152;24.714;2023-03-03T01:05:55;-23979.88;;;5.84;nan
7105;BME280;3594;42.152;24.714;2023-03-03T01:08:21;-23986.13;;;6.06;nan
7105;BME280;3594;42.152;24.714;2023-03-03T01:10:58;-23974.19;;;5.64;nan
7105;BME280;3594;42.152;24.714;2023-03-03T01:13:30;-23963.38;;;5.25;nan
7105;BME280;3594;42.152;24.714;2023-03-03T01:15:58;-23978.44;;;5.79;nan
7105;BME280;3594;42.152;24.714;2023-03-03T01:18:24;-23979.00;;;5.81;nan
7105;BME280;3594;42.152;24.714;2023-03-03T01:20:49;-23974.03;;;5.63;nan
7105;BME280;3594;42.152;24.714;2023-03-03T01:23:14;-23976.47;;;5.72;nan
7105;BME280;3594;42.152;24.714;2023-03-03T01:25:40;-23977.88;;;5.77;nan
7105;BME280;3594;42.152;24.714;2023-03-03T01:28:06;-23979.88;;;5.84;nan
7105;BME280;3594;42.152;24.714;2023-03-03T01:30:31;-23979.31;;;5.82;nan
7105;BME280;3594;42.152;24.714;2023-03-03T01:32:57;-23972.91;;;5.59;nan
7105;BME280;3594;42.152;24.714;2023-03-03T01:35:22;-23979.00;;;5.81;nan
7105;BME280;3594;42.152;24.714;2023-03-03T01:37:48;-23978.16;;;5.78;nan
7105;BME280;3594;42.152;24.714;2023-03-03T01:40:20;-23977.03;;;5.74;nan
7105;BME280;3594;42.152;24.714;2023-03-03T01:42:45;-23975.88;;;5.70;nan
7105;BME280;3594;42.152;24.714;2023-03-03T01:45:21;-23979.00;;;5.81;nan
7105;BME280;3594;42.152;24.714;2023-03-03T01:48:17;-23982.56;;;5.94;nan
7105;BME280;3594;42.152;24.714;2023-03-03T01:50:56;-23983.28;;;5.96;nan
7105;BME280;3594;42.152;24.714;2023-03-03T01:55:58;-23977.31;;;5.75;nan
7105;BME280;3594;42.152;24.714;2023-03-03T01:58:37;-23979.44;;;5.83;nan
7105;BME280;3594;42.152;24.714;2023-03-03T02:01:11;-23972.75;;;5.59;nan
7105;BME280;3594;42.152;24.714;2023-03-03T02:03:39;-23967.66;;;5.41;nan
7105;BME280;3594;42.152;24.714;2023-03-03T02:06:08;-23972.63;;;5.58;nan
7105;BME280;3594;42.152;24.714;2023-03-03T02:08:44;-23969.78;;;5.48;nan
7105;BME280;3594;42.152;24.714;2023-03-03T02:11:15;-23969.34;;;5.47;nan
7105;BME280;3594;42.152;24.714;2023-03-03T02:13:40;-23976.75;;;5.73;nan
7105;BME280;3594;42.152;24.714;2023-03-03T02:16:06;-23974.75;;;5.66;nan
7105;BME280;3594;42.152;24.714;2023-03-03T02:18:32;-23965.50;;;5.33;nan
7105;BME280;3594;42.152;24.714;2023-03-03T02:21:17;-23972.19;;;5.57;nan
7105;BME280;3594;42.152;24.714;2023-03-03T02:26:17;-23956.00;;;4.99;nan
7105;BME280;3594;42.152;24.714;2023-03-03T02:28:44;-23952.84;;;4.88;nan
7105;BME280;3594;42.152;24.714;2023-03-03T02:31:12;-23957.97;;;5.06;nan
7105;BME280;3594;42.152;24.714;2023-03-03T02:33:44;-23960.97;;;5.17;nan
7105;BME280;3594;42.152;24.714;2023-03-03T02:41:35;-23955.13;;;4.96;nan
7105;BME280;3594;42.152;24.714;2023-03-03T02:44:12;-23950.16;;;4.78;nan
7105;BME280;3594;42.152;24.714;2023-03-03T02:46:39;-23950.84;;;4.81;nan
7105;BME280;3594;42.152;24.714;2023-03-03T02:49:07;-23956.84;;;5.02;nan
7105;BME280;3594;42.152;24.714;2023-03-03T02:51:33;-23952.44;;;4.86;nan
7105;BME280;3594;42.152;24.714;2023-03-03T02:53:59;-23957.41;;;5.04;nan
7105;BME280;3594;42.152;24.714;2023-03-03T02:56:25;-23946.03;;;4.64;nan
7105;BME280;3594;42.152;24.714;2023-03-03T02:58:50;-23965.22;;;5.32;nan
7105;BME280;3594;42.152;24.714;2023-03-03T03:01:16;-23959.97;;;5.13;nan
7105;BME280;3594;42.152;24.714;2023-03-03T03:03:42;-23946.59;;;4.66;nan
7105;BME280;3594;42.152;24.714;2023-03-03T03:06:07;-23967.38;;;5.40;nan
7105;BME280;3594;42.152;24.714;2023-03-03T03:08:32;-23965.22;;;5.32;nan
7105;BME280;3594;42.152;24.714;2023-03-03T03:10:58;-23965.22;;;5.32;nan
7105;BME280;3594;42.152;24.714;2023-03-03T03:13:24;-23963.25;;;5.25;nan
7105;BME280;3594;42.152;24.714;2023-03-03T03:15:50;-23963.66;;;5.26;nan
7105;BME280;3594;42.152;24.714;2023-03-03T03:18:16;-23954.28;;;4.93;nan
7105;BME280;3594;42.152;24.714;2023-03-03T03:20:42;-23957.25;;;5.04;nan
7105;BME280;3594;42.152;24.714;2023-03-03T03:23:08;-23963.25;;;5.25;nan
7105;BME280;3594;42.152;24.714;2023-03-03T03:25:34;-23957.25;;;5.04;nan
7105;BME280;3594;42.152;24.714;2023-03-03T03:28:00;-23961.38;;;5.18;nan
7105;BME280;3594;42.152;24.714;2023-03-03T03:30:26;-23959.25;;;5.11;nan
7105;BME280;3594;42.152;24.714;2023-03-03T03:32:51;-23965.09;;;5.31;nan
7105;BME280;3594;42.152;24.714;2023-03-03T03:35:17;-23956.56;;;5.01;nan
7105;BME280;3594;42.152;24.714;2023-03-03T03:37:43;-23957.13;;;5.03;nan
7105;BME280;3594;42.152;24.714;2023-03-03T03:40:10;-23959.25;;;5.11;nan
7105;BME280;3594;42.152;24.714;2023-03-03T03:42:36;-23954.56;;;4.94;nan
7105;BME280;3594;42.152;24.714;2023-03-03T03:45:03;-23955.13;;;4.96;nan
7105;BME280;3594;42.152;24.714;2023-03-03T03:47:28;-23959.25;;;5.11;nan
7105;BME280;3594;42.152;24.714;2023-03-03T03:49:54;-23964.22;;;5.28;nan
7105;BME280;3594;42.152;24.714;2023-03-03T03:52:19;-23957.13;;;5.03;nan
7105;BME280;3594;42.152;24.714;2023-03-03T03:54:45;-23957.97;;;5.06;nan
7105;BME280;3594;42.152;24.714;2023-03-03T03:57:10;-23966.78;;;5.38;nan
7105;BME280;3594;42.152;24.714;2023-03-03T03:59:35;-23961.38;;;5.18;nan
7105;BME280;3594;42.152;24.714;2023-03-03T04:02:01;-23958.97;;;5.10;nan
7105;BME280;3594;42.152;24.714;2023-03-03T04:04:26;-23966.78;;;5.38;nan
7105;BME280;3594;42.152;24.714;2023-03-03T04:06:52;-23953.28;;;4.89;nan
7105;BME280;3594;42.152;24.714;2023-03-03T04:09:18;-23960.53;;;5.15;nan
7105;BME280;3594;42.152;24.714;2023-03-03T04:11:43;-23964.81;;;5.30;nan
7105;BME280;3594;42.152;24.714;2023-03-03T04:16:34;-23965.09;;;5.31;nan
7105;BME280;3594;42.152;24.714;2023-03-03T04:18:59;-23972.75;;;5.59;nan
7105;BME280;3594;42.152;24.714;2023-03-03T04:21:25;-23960.81;;;5.16;nan
7105;BME280;3594;42.152;24.714;2023-03-03T04:23:52;-23960.41;;;5.15;nan
7105;BME280;3594;42.152;24.714;2023-03-03T04:26:17;-23954.41;;;4.94;nan
7105;BME280;3594;42.152;24.714;2023-03-03T04:28:43;-23962.38;;;5.22;nan
7105;BME280;3594;42.152;24.714;2023-03-03T04:31:08;-23957.13;;;5.03;nan
7105;BME280;3594;42.152;24.714;2023-03-03T04:33:34;-23955.28;;;4.97;nan
7105;BME280;3594;42.152;24.714;2023-03-03T04:36:00;-23962.66;;;5.23;nan
7105;BME280;3594;42.152;24.714;2023-03-03T04:38:25;-23952.16;;;4.85;nan
7105;BME280;3594;42.152;24.714;2023-03-03T04:40:51;-23955.69;;;4.98;nan
7105;BME280;3594;42.152;24.714;2023-03-03T04:43:16;-23953.13;;;4.89;nan
7105;BME280;3594;42.152;24.714;2023-03-03T04:45:42;-23953.13;;;4.89;nan
7105;BME280;3594;42.152;24.714;2023-03-03T04:48:08;-23948.16;;;4.71;nan
7105;BME280;3594;42.152;24.714;2023-03-03T04:50:33;-23954.00;;;4.92;nan
7105;BME280;3594;42.152;24.714;2023-03-03T04:52:59;-23957.13;;;5.03;nan
7105;BME280;3594;42.152;24.714;2023-03-03T04:55:24;-23952.28;;;4.86;nan
7105;BME280;3594;42.152;24.714;2023-03-03T04:57:50;-23950.84;;;4.81;nan
7105;BME280;3594;42.152;24.714;2023-03-03T05:00:16;-23956.41;;;5.01;nan
7105;BME280;3594;42.152;24.714;2023-03-03T05:02:41;-23955.56;;;4.98;nan
7105;BME280;3594;42.152;24.714;2023-03-03T05:05:08;-23954.00;;;4.92;nan
7105;BME280;3594;42.152;24.714;2023-03-03T05:07:38;-23957.69;;;5.05;nan
7105;BME280;3594;42.152;24.714;2023-03-03T05:10:06;-23964.81;;;5.30;nan
7105;BME280;3594;42.152;24.714;2023-03-03T05:12:31;-23953.84;;;4.92;nan
7105;BME280;3594;42.152;24.714;2023-03-03T05:14:57;-23954.41;;;4.94;nan
7105;BME280;3594;42.152;24.714;2023-03-03T05:17:22;-23964.09;;;5.28;nan
7105;BME280;3594;42.152;24.714;2023-03-03T05:19:48;-23961.38;;;5.18;nan
7105;BME280;3594;42.152;24.714;2023-03-03T05:22:13;-23958.53;;;5.08;nan
7105;BME280;3594;42.152;24.714;2023-03-03T05:24:39;-23965.78;;;5.34;nan
7105;BME280;3594;42.152;24.714;2023-03-03T05:27:07;-23971.47;;;5.54;nan
7105;BME280;3594;42.152;24.714;2023-03-03T05:29:32;-23967.06;;;5.39;nan
7105;BME280;3594;42.152;24.714;2023-03-03T05:31:58;-23966.09;;;5.35;nan
7105;BME280;3594;42.152;24.714;2023-03-03T05:34:23;-23968.94;;;5.45;nan
7105;BME280;3594;42.152;24.714;2023-03-03T05:36:49;-23967.50;;;5.40;nan
7105;BME280;3594;42.152;24.714;2023-03-03T05:39:14;-23964.94;;;5.31;nan
7105;BME280;3594;42.152;24.714;2023-03-03T05:41:40;-23974.75;;;5.66;nan
7105;BME280;3594;42.152;24.714;2023-03-03T05:44:06;-23962.09;;;5.21;nan
7105;BME280;3594;42.152;24.714;2023-03-03T05:46:31;-23967.50;;;5.40;nan
7105;BME280;3594;42.152;24.714;2023-03-03T05:48:57;-23974.03;;;5.63;nan
7105;BME280;3594;42.152;24.714;2023-03-03T05:51:23;-23967.94;;;5.42;nan
7105;BME280;3594;42.152;24.714;2023-03-03T05:53:48;-23961.66;;;5.19;nan
7105;BME280;3594;42.152;24.714;2023-03-03T05:56:13;-23975.03;;;5.67;nan
7105;BME280;3594;42.152;24.714;2023-03-03T05:58:39;-23977.31;;;5.75;nan
7105;BME280;3594;42.152;24.714;2023-03-03T06:01:05;-23978.44;;;5.79;nan
7105;BME280;3594;42.152;24.714;2023-03-03T06:03:30;-23974.31;;;5.64;nan
7105;BME280;3594;42.152;24.714;2023-03-03T06:05:56;-23976.47;;;5.72;nan
7105;BME280;3594;42.152;24.714;2023-03-03T06:08:32;-23980.72;;;5.87;nan
7105;BME280;3594;42.152;24.714;2023-03-03T06:10:57;-23981.72;;;5.91;nan
7105;BME280;3594;42.152;24.714;2023-03-03T06:13:23;-23968.50;;;5.44;nan
7105;BME280;3594;42.152;24.714;2023-03-03T06:15:48;-23973.19;;;5.60;nan
7105;BME280;3594;42.152;24.714;2023-03-03T06:18:14;-23969.34;;;5.47;nan
7105;BME280;3594;42.152;24.714;2023-03-03T06:20:39;-23981.72;;;5.91;nan
7105;BME280;3594;42.152;24.714;2023-03-03T06:23:05;-23984.97;;;6.02;nan
7105;BME280;3594;42.152;24.714;2023-03-03T06:25:30;-23986.25;;;6.07;nan
7105;BME280;3594;42.152;24.714;2023-03-03T06:27:56;-23978.31;;;5.78;nan
7105;BME280;3594;42.152;24.714;2023-03-03T06:30:22;-23975.19;;;5.67;nan
7105;BME280;3594;42.152;24.714;2023-03-03T06:32:47;-23982.16;;;5.92;nan
7105;BME280;3594;42.152;24.714;2023-03-03T06:35:13;-23983.84;;;5.98;nan
7105;BME280;3594;42.152;24.714;2023-03-03T06:37:38;-23984.13;;;5.99;nan
7105;BME280;3594;42.152;24.714;2023-03-03T06:40:04;-23961.81;;;5.20;nan
7105;BME280;3594;42.152;24.714;2023-03-03T06:42:30;-23988.97;;;6.16;nan
7105;BME280;3594;42.152;24.714;2023-03-03T06:44:55;-23988.97;;;6.16;nan
7105;BME280;3594;42.152;24.714;2023-03-03T06:47:21;-23983.28;;;5.96;nan
7105;BME280;3594;42.152;24.714;2023-03-03T06:49:46;-23984.28;;;6.00;nan
7105;BME280;3594;42.152;24.714;2023-03-03T06:52:23;-23992.78;;;6.30;nan
7105;BME280;3594;42.152;24.714;2023-03-03T06:54:52;-23994.78;;;6.37;nan
7105;BME280;3594;42.152;24.714;2023-03-03T06:57:25;-23994.34;;;6.36;nan
7105;BME280;3594;42.152;24.714;2023-03-03T06:59:54;-23990.94;;;6.24;nan
7105;BME280;3594;42.152;24.714;2023-03-03T07:02:20;-23983.72;;;5.98;nan
7105;BME280;3594;42.152;24.714;2023-03-03T07:04:46;-23994.66;;;6.37;nan
7105;BME280;3594;42.152;24.714;2023-03-03T07:07:20;-23997.91;;;6.48;nan
7105;BME280;3594;42.152;24.714;2023-03-03T07:09:53;-23998.34;;;6.50;nan
7105;BME280;3594;42.152;24.714;2023-03-03T07:12:20;-24003.44;;;6.68;nan
7105;BME280;3594;42.152;24.714;2023-03-03T07:14:54;-24003.72;;;6.69;nan
7105;BME280;3594;42.152;24.714;2023-03-03T07:17:24;-23998.63;;;6.51;nan
7105;BME280;3594;42.152;24.714;2023-03-03T07:19:49;-24010.53;;;6.93;nan
7105;BME280;3594;42.152;24.714;2023-03-03T07:22:24;-24010.97;;;6.95;nan
7105;BME280;3594;42.152;24.714;2023-03-03T07:24:51;-24018.19;;;7.21;nan
7105;BME280;3594;42.152;24.714;2023-03-03T07:29:45;-24004.44;;;6.72;nan
7105;BME280;3594;42.152;24.714;2023-03-03T07:32:25;-24016.63;;;7.15;nan
7105;BME280;3594;42.152;24.714;2023-03-03T07:34:54;-24013.38;;;7.03;nan
7105;BME280;3594;42.152;24.714;2023-03-03T07:37:37;-24013.09;;;7.02;nan
7105;BME280;3594;42.152;24.714;2023-03-03T07:42:51;-24011.94;;;6.98;nan
7105;BME280;3594;42.152;24.714;2023-03-03T07:45:30;-24010.25;;;6.92;nan
7105;BME280;3594;42.152;24.714;2023-03-03T07:50:38;-24019.63;;;7.26;nan
7105;BME280;3594;42.152;24.714;2023-03-03T07:53:20;-24018.34;;;7.21;nan
7105;BME280;3594;42.152;24.714;2023-03-03T07:55:47;-24025.44;;;7.46;nan
7105;BME280;3594;42.152;24.714;2023-03-03T07:58:19;-24026.28;;;7.49;nan
7105;BME280;3594;42.152;24.714;2023-03-03T08:03:49;-24023.31;;;7.39;nan
7105;BME280;3594;42.152;24.714;2023-03-03T08:06:55;-24026.00;;;7.48;nan
7105;BME280;3594;42.152;24.714;2023-03-03T08:14:35;-24020.75;;;7.30;nan
7105;BME280;3594;42.152;24.714;2023-03-03T08:17:06;-24025.56;;;7.47;nan
7105;BME280;3594;42.152;24.714;2023-03-03T08:19:38;-24027.56;;;7.54;nan
7105;BME280;3594;42.152;24.714;2023-03-03T08:22:17;-24024.88;;;7.44;nan
7105;BME280;3594;42.152;24.714;2023-03-03T08:24:42;-24029.41;;;7.61;nan
7105;BME280;3594;42.152;24.714;2023-03-03T08:27:07;-24027.28;;;7.53;nan
7105;BME280;3594;42.152;24.714;2023-03-03T08:29:33;-24034.06;;;7.77;nan
7105;BME280;3594;42.152;24.714;2023-03-03T08:31:58;-24031.53;;;7.68;nan
7105;BME280;3594;42.152;24.714;2023-03-03T08:34:24;-24035.34;;;7.82;nan
7105;BME280;3594;42.152;24.714;2023-03-03T08:36:49;-24034.22;;;7.78;nan
7105;BME280;3594;42.152;24.714;2023-03-03T08:39:15;-24032.22;;;7.71;nan
7105;BME280;3594;42.152;24.714;2023-03-03T08:41:40;-24030.94;;;7.66;nan
7105;BME280;3594;42.152;24.714;2023-03-03T08:44:08;-24038.59;;;7.93;nan
7105;BME280;3594;42.152;24.714;2023-03-03T08:46:34;-24042.72;;;8.08;nan
7105;BME280;3594;42.152;24.714;2023-03-03T08:48:59;-24033.22;;;7.74;nan
7105;BME280;3594;42.152;24.714;2023-03-03T08:51:25;-24041.44;;;8.04;nan
7105;BME280;3594;42.152;24.714;2023-03-03T08:53:51;-24042.84;;;8.09;nan
7105;BME280;3594;42.152;24.714;2023-03-03T08:56:16;-24044.41;;;8.14;nan
7105;BME280;3594;42.152;24.714;2023-03-03T08:58:42;-24043.56;;;8.11;nan
7105;BME280;3594;42.152;24.714;2023-03-03T09:01:14;-24041.44;;;8.04;nan
7105;BME280;3594;42.152;24.714;2023-03-03T09:03:43;-24031.81;;;7.69;nan
7105;BME280;3594;42.152;24.714;2023-03-03T09:06:10;-24042.84;;;8.09;nan
7105;BME280;3594;42.152;24.714;2023-03-03T09:08:36;-24041.16;;;8.03;nan
7105;BME280;3594;42.152;24.714;2023-03-03T09:11:01;-24026.56;;;7.50;nan
7105;BME280;3594;42.152;24.714;2023-03-03T09:13:28;-24030.94;;;7.66;nan
7105;BME280;3594;42.152;24.714;2023-03-03T09:15:55;-24040.88;;;8.02;nan
7105;BME280;3594;42.152;24.714;2023-03-03T09:18:41;-24036.75;;;7.87;nan
7105;BME280;3594;42.152;24.714;2023-03-03T09:21:21;-24041.28;;;8.03;nan
7105;BME280;3594;42.152;24.714;2023-03-03T09:23:53;-24041.84;;;8.05;nan
7105;BME280;3594;42.152;24.714;2023-03-03T09:31:43;-24038.19;;;7.92;nan
7105;BME280;3594;42.152;24.714;2023-03-03T09:36:54;-24050.66;;;8.36;nan
7105;BME280;3594;42.152;24.714;2023-03-03T09:39:25;-24051.22;;;8.38;nan
7105;BME280;3594;42.152;24.714;2023-03-03T09:50:40;-24056.44;;;8.57;nan
7105;BME280;3594;42.152;24.714;2023-03-03T09:58:49;-24055.31;;;8.53;nan
7105;BME280;3594;42.152;24.714;2023-03-03T10:07:51;-24066.91;;;8.95;nan
7105;BME280;3594;42.152;24.714;2023-03-03T10:10:32;-24071.44;;;9.11;nan
7105;BME280;3594;42.152;24.714;2023-03-03T10:18:29;-24067.06;;;8.95;nan
7105;BME280;3594;42.152;24.714;2023-03-03T10:32:06;-24068.63;;;9.01;nan
7105;BME280;3594;42.152;24.714;2023-03-03T10:35:17;-24070.72;;;9.08;nan
7105;BME280;3594;42.152;24.714;2023-03-03T10:40:39;-24059.97;;;8.70;nan
7105;BME280;3594;42.152;24.714;2023-03-03T10:43:34;-24068.63;;;9.01;nan
7105;BME280;3594;42.152;24.714;2023-03-03T10:56:49;-24041.56;;;8.04;nan
7105;BME280;3594;42.152;24.714;2023-03-03T11:15:49;-24086.28;;;9.64;nan
7105;BME280;3594;42.152;24.714;2023-03-03T11:23:54;-24087.28;;;9.67;nan
7105;BME280;3594;42.152;24.714;2023-03-03T11:34:36;-24102.53;;;10.22;nan
7105;BME280;3594;42.152;24.714;2023-03-03T11:36:46;-24100.25;;;10.14;nan
7105;BME280;3594;42.152;24.714;2023-03-03T11:39:20;-24098.28;;;10.07;nan
7105;BME280;3594;42.152;24.714;2023-03-03T11:44:34;-24079.63;;;9.40;nan
7105;BME280;3594;42.152;24.714;2023-03-03T11:47:08;-24085.56;;;9.61;nan
7105;BME280;3594;42.152;24.714;2023-03-03T11:49:50;-24089.09;;;9.74;nan
7105;BME280;3594;42.152;24.714;2023-03-03T11:55:17;-24100.53;;;10.15;nan
7105;BME280;3594;42.152;24.714;2023-03-03T11:57:49;-24092.63;;;9.87;nan
7105;BME280;3594;42.152;24.714;2023-03-03T12:02:54;-24085.84;;;9.62;nan
7105;BME280;3594;42.152;24.714;2023-03-03T12:11:31;-24107.75;;;10.41;nan
7105;BME280;3594;42.152;24.714;2023-03-03T12:28:05;-24081.47;;;9.47;nan
7105;BME280;3594;42.152;24.714;2023-03-03T12:36:26;-24081.06;;;9.45;nan
7105;BME280;3594;42.152;24.714;2023-03-03T12:39:02;-24087.84;;;9.69;nan
7105;BME280;3594;42.152;24.714;2023-03-03T12:41:52;-24083.47;;;9.54;nan
7105;BME280;3594;42.152;24.714;2023-03-03T12:47:29;-24103.38;;;10.25;nan
7105;BME280;3594;42.152;24.714;2023-03-03T13:00:48;-24092.63;;;9.87;nan
7105;BME280;3594;42.152;24.714;2023-03-03T13:03:38;-24087.84;;;9.69;nan
7105;BME280;3594;42.152;24.714;2023-03-03T13:06:13;-24080.22;;;9.42;nan
7105;BME280;3594;42.152;24.714;2023-03-03T13:09:08;-24085.44;;;9.61;nan
7105;BME280;3594;42.152;24.714;2023-03-03T13:17:08;-24084.16;;;9.56;nan
7105;BME280;3594;42.152;24.714;2023-03-03T13:19:43;-24082.31;;;9.50;nan
7105;BME280;3594;42.152;24.714;2023-03-03T13:22:38;-24075.69;;;9.26;nan
7105;BME280;3594;42.152;24.714;2023-03-03T13:25:35;-24087.84;;;9.69;nan
7105;BME280;3594;42.152;24.714;2023-03-03T13:31:35;-24078.38;;;9.36;nan
7105;BME280;3594;42.152;24.714;2023-03-03T13:34:02;-24078.09;;;9.35;nan
7105;BME280;3594;42.152;24.714;2023-03-03T13:36:43;-24079.22;;;9.39;nan
7105;BME280;3594;42.152;24.714;2023-03-03T13:39:24;-24079.50;;;9.40;nan
7105;BME280;3594;42.152;24.714;2023-03-03T13:41:59;-24084.16;;;9.56;nan
7105;BME280;3594;42.152;24.714;2023-03-03T13:44:40;-24081.06;;;9.45;nan
7105;BME280;3594;42.152;24.714;2023-03-03T14:03:59;-24090.25;;;9.78;nan
7105;BME280;3594;42.152;24.714;2023-03-03T14:06:27;-24088.97;;;9.73;nan
7105;BME280;3594;42.152;24.714;2023-03-03T14:12:17;-24092.63;;;9.87;nan
7105;BME280;3594;42.152;24.714;2023-03-03T14:23:11;-24077.53;;;9.32;nan
7105;BME280;3594;42.152;24.714;2023-03-03T14:26:08;-24075.25;;;9.24;nan
7105;BME280;3594;42.152;24.714;2023-03-03T14:28:40;-24077.94;;;9.34;nan
7105;BME280;3594;42.152;24.714;2023-03-03T14:31:24;-24079.91;;;9.41;nan
7105;BME280;3594;42.152;24.714;2023-03-03T14:33:58;-24080.50;;;9.43;nan
7105;BME280;3594;42.152;24.714;2023-03-03T14:36:30;-24081.91;;;9.48;nan
7105;BME280;3594;42.152;24.714;2023-03-03T14:38:56;-24079.78;;;9.41;nan
7105;BME280;3594;42.152;24.714;2023-03-03T14:41:35;-24082.03;;;9.49;nan
7105;BME280;3594;42.152;24.714;2023-03-03T14:49:32;-24076.66;;;9.29;nan
7105;BME280;3594;42.152;24.714;2023-03-03T14:52:02;-24064.50;;;8.86;nan
7105;BME280;3594;42.152;24.714;2023-03-03T14:54:33;-24070.44;;;9.07;nan
7105;BME280;3594;42.152;24.714;2023-03-03T14:57:21;-24068.19;;;8.99;nan
7105;BME280;3594;42.152;24.714;2023-03-03T15:05:17;-24068.19;;;8.99;nan
7105;BME280;3594;42.152;24.714;2023-03-03T15:07:44;-24067.75;;;8.98;nan
7105;BME280;3594;42.152;24.714;2023-03-03T15:10:10;-24062.66;;;8.79;nan
7105;BME280;3594;42.152;24.714;2023-03-03T15:12:41;-24062.38;;;8.78;nan
7105;BME280;3594;42.152;24.714;2023-03-03T15:15:20;-24072.00;;;9.13;nan
7105;BME280;3594;42.152;24.714;2023-03-03T15:23:19;-24072.84;;;9.16;nan
7105;BME280;3594;42.152;24.714;2023-03-03T15:26:01;-24073.84;;;9.19;nan
7105;BME280;3594;42.152;24.714;2023-03-03T15:29:03;-24070.88;;;9.09;nan
7105;BME280;3594;42.152;24.714;2023-03-03T15:31:44;-24068.19;;;8.99;nan
7105;BME280;3594;42.152;24.714;2023-03-03T15:42:03;-24065.66;;;8.90;nan
7105;BME280;3594;42.152;24.714;2023-03-03T15:44:37;-24062.94;;;8.80;nan
7105;BME280;3594;42.152;24.714;2023-03-03T15:50:11;-24053.91;;;8.48;nan
7105;BME280;3594;42.152;24.714;2023-03-03T15:52:54;-24052.91;;;8.45;nan
7105;BME280;3594;42.152;24.714;2023-03-03T15:58:48;-24058.44;;;8.64;nan
7105;BME280;3594;42.152;24.714;2023-03-03T16:03:58;-24039.31;;;7.96;nan
7105;BME280;3594;42.152;24.714;2023-03-03T16:06:44;-24044.56;;;8.15;nan
7105;BME280;3594;42.152;24.714;2023-03-03T16:14:46;-24032.09;;;7.70;nan
7105;BME280;3594;42.152;24.714;2023-03-03T16:20:36;-24038.88;;;7.94;nan
7105;BME280;3594;42.152;24.714;2023-03-03T16:23:21;-24038.59;;;7.93;nan
7105;BME280;3594;42.152;24.714;2023-03-03T16:26:14;-24038.75;;;7.94;nan
7105;BME280;3594;42.152;24.714;2023-03-03T16:31:35;-24037.31;;;7.89;nan
7105;BME280;3594;42.152;24.714;2023-03-03T16:39:34;-24033.38;;;7.75;nan
7105;BME280;3594;42.152;24.714;2023-03-03T16:42:12;-24024.88;;;7.44;nan
7105;BME280;3594;42.152;24.714;2023-03-03T16:47:41;-24032.94;;;7.73;nan
7105;BME280;3594;42.152;24.714;2023-03-03T16:53:18;-24032.38;;;7.71;nan
7105;BME280;3594;42.152;24.714;2023-03-03T16:58:29;-24029.09;;;7.60;nan
7105;BME280;3594;42.152;24.714;2023-03-03T17:01:00;-24027.41;;;7.53;nan
7105;BME280;3594;42.152;24.714;2023-03-03T17:06:09;-24016.34;;;7.14;nan
7105;BME280;3594;42.152;24.714;2023-03-03T17:13:57;-24017.47;;;7.18;nan
7105;BME280;3594;42.152;24.714;2023-03-03T17:16:37;-24016.63;;;7.15;nan
7105;BME280;3594;42.152;24.714;2023-03-03T17:22:20;-24010.13;;;6.92;nan
7105;BME280;3594;42.152;24.714;2023-03-03T17:30:22;-24009.81;;;6.91;nan
7105;BME280;3594;42.152;24.714;2023-03-03T17:32:54;-24009.13;;;6.88;nan
7105;BME280;3594;42.152;24.714;2023-03-03T17:38:01;-24009.69;;;6.90;nan
7105;BME280;3594;42.152;24.714;2023-03-03T17:41:08;-24005.84;;;6.77;nan
7105;BME280;3594;42.152;24.714;2023-03-03T17:46:27;-23992.22;;;6.28;nan
7105;BME280;3594;42.152;24.714;2023-03-03T17:57:22;-24000.31;;;6.57;nan
7105;BME280;3594;42.152;24.714;2023-03-03T18:00:08;-24000.03;;;6.56;nan
7105;BME280;3594;42.152;24.714;2023-03-03T18:14:20;-23984.84;;;6.02;nan
7105;BME280;3594;42.152;24.714;2023-03-03T18:22:16;-23974.75;;;5.66;nan
7105;BME280;3594;42.152;24.714;2023-03-03T18:32:41;-23979.31;;;5.82;nan
7105;BME280;3594;42.152;24.714;2023-03-03T18:38:21;-23982.28;;;5.93;nan
7105;BME280;3594;42.152;24.714;2023-03-03T18:46:44;-23977.44;;;5.75;nan
7105;BME280;3594;42.152;24.714;2023-03-03T18:49:06;-23970.47;;;5.51;nan
7105;BME280;3594;42.152;24.714;2023-03-03T18:56:46;-23974.59;;;5.65;nan
7105;BME280;3594;42.152;24.714;2023-03-03T19:04:39;-23973.47;;;5.61;nan
7105;BME280;3594;42.152;24.714;2023-03-03T19:07:23;-23970.34;;;5.50;nan
7105;BME280;3594;42.152;24.714;2023-03-03T19:10:04;-23968.63;;;5.44;nan
7105;BME280;3594;42.152;24.714;2023-03-03T19:12:56;-23972.91;;;5.59;nan
7105;BME280;3594;42.152;24.714;2023-03-03T19:31:46;-23976.16;;;5.71;nan
7105;BME280;3594;42.152;24.714;2023-03-03T19:37:01;-23974.75;;;5.66;nan
7105;BME280;3594;42.152;24.714;2023-03-03T19:42:04;-23965.22;;;5.32;nan
7105;BME280;3594;42.152;24.714;2023-03-03T19:44:38;-23968.06;;;5.42;nan
7105;BME280;3594;42.152;24.714;2023-03-03T19:49:51;-23964.22;;;5.28;nan
7105;BME280;3594;42.152;24.714;2023-03-03T19:52:41;-23961.66;;;5.19;nan
7105;BME280;3594;42.152;24.714;2023-03-03T19:55:22;-23965.66;;;5.33;nan
7105;BME280;3594;42.152;24.714;2023-03-03T20:00:45;-23965.66;;;5.33;nan
7105;BME280;3594;42.152;24.714;2023-03-03T20:03:43;-23966.78;;;5.38;nan